<?xml version="1.0" encoding="UTF-8" standalone="no" ?>
<gpx xmlns="http://www.topografix.com/GPX/1/1" xmlns:xsi="http://www.w3.org/2001/XMLSchema-instance" xsi:schemaLocation="http://www.topografix.com/GPX/1/1 http://www.topografix.com/GPX/1/1/gpx.xsd" version="1.1" creator="VisuGPX - https://www.visugpx.com">
  <metadata>
    <name>La Bardenas Reales</name>
  </metadata>
  <trk>
    <name><![CDATA[8- 9 Extreme Bardenas]]></name>
    <extensions>
      <line xmlns="http://www.topografix.com/GPX/gpx_style/0/2">
        <color>ff00ff</color>
        <opacity>0.5</opacity>
        <width>12</width>
      </line>
    </extensions>
    <trkseg>
      <trkpt lat="42.30521" lon="-1.41679">
        <ele>394</ele>
        <time>2010-11-06T18:51:39Z</time>
      </trkpt>
      <trkpt lat="42.30223" lon="-1.41735">
        <ele>395</ele>
        <time>2010-11-06T18:53:00Z</time>
      </trkpt>
      <trkpt lat="42.30166" lon="-1.41767">
        <ele>392</ele>
        <time>2010-11-06T18:53:16Z</time>
      </trkpt>
      <trkpt lat="42.30136" lon="-1.41913">
        <ele>393</ele>
        <time>2010-11-06T18:53:46Z</time>
      </trkpt>
      <trkpt lat="42.30053" lon="-1.42153">
        <ele>392</ele>
        <time>2010-11-06T18:54:39Z</time>
      </trkpt>
      <trkpt lat="42.30001" lon="-1.42175">
        <ele>391</ele>
        <time>2010-11-06T18:54:53Z</time>
      </trkpt>
      <trkpt lat="42.29944" lon="-1.42228">
        <ele>382</ele>
        <time>2010-11-06T18:55:12Z</time>
      </trkpt>
      <trkpt lat="42.29866" lon="-1.42242">
        <ele>370</ele>
        <time>2010-11-06T18:55:33Z</time>
      </trkpt>
      <trkpt lat="42.29811" lon="-1.42233">
        <ele>371</ele>
        <time>2010-11-06T18:55:47Z</time>
      </trkpt>
      <trkpt lat="42.29478" lon="-1.42069">
        <ele>380</ele>
        <time>2010-11-06T18:57:23Z</time>
      </trkpt>
      <trkpt lat="42.2938" lon="-1.41974">
        <ele>372</ele>
        <time>2010-11-06T18:57:55Z</time>
      </trkpt>
      <trkpt lat="42.293" lon="-1.4183">
        <ele>373</ele>
        <time>2010-11-06T18:58:31Z</time>
      </trkpt>
      <trkpt lat="42.29278" lon="-1.41813">
        <ele>379</ele>
        <time>2010-11-06T18:58:38Z</time>
      </trkpt>
      <trkpt lat="42.29167" lon="-1.4183">
        <ele>373</ele>
        <time>2010-11-06T18:59:08Z</time>
      </trkpt>
      <trkpt lat="42.28946" lon="-1.41741">
        <ele>371</ele>
        <time>2010-11-06T19:00:10Z</time>
      </trkpt>
      <trkpt lat="42.28535" lon="-1.41788">
        <ele>378</ele>
        <time>2010-11-06T19:02:00Z</time>
      </trkpt>
      <trkpt lat="42.28425" lon="-1.41703">
        <ele>370</ele>
        <time>2010-11-06T19:02:33Z</time>
      </trkpt>
      <trkpt lat="42.2835" lon="-1.41696">
        <ele>366</ele>
        <time>2010-11-06T19:02:54Z</time>
      </trkpt>
      <trkpt lat="42.28264" lon="-1.4164">
        <ele>361</ele>
        <time>2010-11-06T19:03:19Z</time>
      </trkpt>
      <trkpt lat="42.28011" lon="-1.41592">
        <ele>365</ele>
        <time>2010-11-06T19:04:26Z</time>
      </trkpt>
      <trkpt lat="42.27819" lon="-1.41577">
        <ele>357</ele>
        <time>2010-11-06T19:05:17Z</time>
      </trkpt>
      <trkpt lat="42.27688" lon="-1.4153">
        <ele>358</ele>
        <time>2010-11-06T19:05:55Z</time>
      </trkpt>
      <trkpt lat="42.27387" lon="-1.41582">
        <ele>369</ele>
        <time>2010-11-06T19:07:15Z</time>
      </trkpt>
      <trkpt lat="42.27333" lon="-1.41638">
        <ele>370</ele>
        <time>2010-11-06T19:07:34Z</time>
      </trkpt>
      <trkpt lat="42.27244" lon="-1.41638">
        <ele>363</ele>
        <time>2010-11-06T19:07:58Z</time>
      </trkpt>
      <trkpt lat="42.2716" lon="-1.41693">
        <ele>355</ele>
        <time>2010-11-06T19:08:22Z</time>
      </trkpt>
      <trkpt lat="42.26995" lon="-1.41667">
        <ele>357</ele>
        <time>2010-11-06T19:09:06Z</time>
      </trkpt>
      <trkpt lat="42.26894" lon="-1.41689">
        <ele>352</ele>
        <time>2010-11-06T19:09:35Z</time>
      </trkpt>
      <trkpt lat="42.26755" lon="-1.41777">
        <ele>349</ele>
        <time>2010-11-06T19:10:15Z</time>
      </trkpt>
      <trkpt lat="42.26703" lon="-1.41858">
        <ele>349</ele>
        <time>2010-11-06T19:10:36Z</time>
      </trkpt>
      <trkpt lat="42.2664" lon="-1.41879">
        <ele>349</ele>
        <time>2010-11-06T19:10:53Z</time>
      </trkpt>
      <trkpt lat="42.26483" lon="-1.41847">
        <ele>350</ele>
        <time>2010-11-06T19:11:36Z</time>
      </trkpt>
      <trkpt lat="42.2634" lon="-1.41856">
        <ele>353</ele>
        <time>2010-11-06T19:12:14Z</time>
      </trkpt>
      <trkpt lat="42.26184" lon="-1.41897">
        <ele>356</ele>
        <time>2010-11-06T19:12:57Z</time>
      </trkpt>
      <trkpt lat="42.25744" lon="-1.41836">
        <ele>356</ele>
        <time>2010-11-06T19:14:55Z</time>
      </trkpt>
      <trkpt lat="42.25715" lon="-1.41812">
        <ele>355</ele>
        <time>2010-11-06T19:15:03Z</time>
      </trkpt>
      <trkpt lat="42.25514" lon="-1.41522">
        <ele>364</ele>
        <time>2010-11-06T19:16:23Z</time>
      </trkpt>
      <trkpt lat="42.25501" lon="-1.41524">
        <ele>363</ele>
        <time>2010-11-06T19:16:26Z</time>
      </trkpt>
      <trkpt lat="42.25372" lon="-1.4162">
        <ele>366</ele>
        <time>2010-11-06T19:17:06Z</time>
      </trkpt>
      <trkpt lat="42.25321" lon="-1.41722">
        <ele>364</ele>
        <time>2010-11-06T19:17:29Z</time>
      </trkpt>
      <trkpt lat="42.25246" lon="-1.41791">
        <ele>360</ele>
        <time>2010-11-06T19:17:53Z</time>
      </trkpt>
      <trkpt lat="42.25187" lon="-1.41895">
        <ele>355</ele>
        <time>2010-11-06T19:18:20Z</time>
      </trkpt>
      <trkpt lat="42.25178" lon="-1.41953">
        <ele>356</ele>
        <time>2010-11-06T19:18:32Z</time>
      </trkpt>
      <trkpt lat="42.25189" lon="-1.42031">
        <ele>352</ele>
        <time>2010-11-06T19:18:47Z</time>
      </trkpt>
      <trkpt lat="42.25212" lon="-1.42061">
        <ele>351</ele>
        <time>2010-11-06T19:18:55Z</time>
      </trkpt>
      <trkpt lat="42.25246" lon="-1.42268">
        <ele>350</ele>
        <time>2010-11-06T19:19:38Z</time>
      </trkpt>
      <trkpt lat="42.25241" lon="-1.42403">
        <ele>356</ele>
        <time>2010-11-06T19:20:05Z</time>
      </trkpt>
      <trkpt lat="42.25255" lon="-1.42539">
        <ele>359</ele>
        <time>2010-11-06T19:20:33Z</time>
      </trkpt>
      <trkpt lat="42.25318" lon="-1.42768">
        <ele>347</ele>
        <time>2010-11-06T19:21:20Z</time>
      </trkpt>
      <trkpt lat="42.25356" lon="-1.42847">
        <ele>349</ele>
        <time>2010-11-06T19:21:39Z</time>
      </trkpt>
      <trkpt lat="42.25364" lon="-1.42885">
        <ele>352</ele>
        <time>2010-11-06T19:21:47Z</time>
      </trkpt>
      <trkpt lat="42.25351" lon="-1.42907">
        <ele>353</ele>
        <time>2010-11-06T19:21:52Z</time>
      </trkpt>
      <trkpt lat="42.25241" lon="-1.42993">
        <ele>349</ele>
        <time>2010-11-06T19:22:27Z</time>
      </trkpt>
      <trkpt lat="42.25195" lon="-1.43096">
        <ele>354</ele>
        <time>2010-11-06T19:22:51Z</time>
      </trkpt>
      <trkpt lat="42.25146" lon="-1.4312">
        <ele>351</ele>
        <time>2010-11-06T19:23:04Z</time>
      </trkpt>
      <trkpt lat="42.25076" lon="-1.43093">
        <ele>350</ele>
        <time>2010-11-06T19:23:23Z</time>
      </trkpt>
      <trkpt lat="42.2501" lon="-1.43088">
        <ele>347</ele>
        <time>2010-11-06T19:23:42Z</time>
      </trkpt>
      <trkpt lat="42.24951" lon="-1.43109">
        <ele>344</ele>
        <time>2010-11-06T19:23:58Z</time>
      </trkpt>
      <trkpt lat="42.24734" lon="-1.43128">
        <ele>357</ele>
        <time>2010-11-06T19:24:55Z</time>
      </trkpt>
      <trkpt lat="42.24692" lon="-1.43163">
        <ele>356</ele>
        <time>2010-11-06T19:25:10Z</time>
      </trkpt>
      <trkpt lat="42.24592" lon="-1.43324">
        <ele>352</ele>
        <time>2010-11-06T19:25:51Z</time>
      </trkpt>
      <trkpt lat="42.24227" lon="-1.4353">
        <ele>339</ele>
        <time>2010-11-06T19:27:37Z</time>
      </trkpt>
      <trkpt lat="42.2415" lon="-1.43525">
        <ele>336</ele>
        <time>2010-11-06T19:27:57Z</time>
      </trkpt>
      <trkpt lat="42.24098" lon="-1.43547">
        <ele>334</ele>
        <time>2010-11-06T19:28:12Z</time>
      </trkpt>
      <trkpt lat="42.23821" lon="-1.43847">
        <ele>342</ele>
        <time>2010-11-06T19:29:47Z</time>
      </trkpt>
      <trkpt lat="42.23669" lon="-1.44044">
        <ele>350</ele>
        <time>2010-11-06T19:30:42Z</time>
      </trkpt>
      <trkpt lat="42.23562" lon="-1.44322">
        <ele>344</ele>
        <time>2010-11-06T19:31:44Z</time>
      </trkpt>
      <trkpt lat="42.23587" lon="-1.44411">
        <ele>343</ele>
        <time>2010-11-06T19:32:03Z</time>
      </trkpt>
      <trkpt lat="42.2358" lon="-1.44643">
        <ele>347</ele>
        <time>2010-11-06T19:32:50Z</time>
      </trkpt>
      <trkpt lat="42.23352" lon="-1.44868">
        <ele>336</ele>
        <time>2010-11-06T19:34:04Z</time>
      </trkpt>
      <trkpt lat="42.23316" lon="-1.44934">
        <ele>339</ele>
        <time>2010-11-06T19:34:22Z</time>
      </trkpt>
      <trkpt lat="42.23285" lon="-1.4505">
        <ele>347</ele>
        <time>2010-11-06T19:34:46Z</time>
      </trkpt>
      <trkpt lat="42.23099" lon="-1.45241">
        <ele>339</ele>
        <time>2010-11-06T19:35:48Z</time>
      </trkpt>
      <trkpt lat="42.23016" lon="-1.45361">
        <ele>345</ele>
        <time>2010-11-06T19:36:20Z</time>
      </trkpt>
      <trkpt lat="42.22983" lon="-1.4544">
        <ele>341</ele>
        <time>2010-11-06T19:36:39Z</time>
      </trkpt>
      <trkpt lat="42.22852" lon="-1.45486">
        <ele>344</ele>
        <time>2010-11-06T19:37:14Z</time>
      </trkpt>
      <trkpt lat="42.22814" lon="-1.45533">
        <ele>340</ele>
        <time>2010-11-06T19:37:28Z</time>
      </trkpt>
      <trkpt lat="42.22554" lon="-1.45561">
        <ele>316</ele>
        <time>2010-11-06T19:38:38Z</time>
      </trkpt>
      <trkpt lat="42.22391" lon="-1.45616">
        <ele>301</ele>
        <time>2010-11-06T19:39:24Z</time>
      </trkpt>
      <trkpt lat="42.22179" lon="-1.45718">
        <ele>313</ele>
        <time>2010-11-06T19:40:23Z</time>
      </trkpt>
      <trkpt lat="42.22056" lon="-1.45832">
        <ele>309</ele>
        <time>2010-11-06T19:41:03Z</time>
      </trkpt>
      <trkpt lat="42.21981" lon="-1.46141">
        <ele>299</ele>
        <time>2010-11-06T19:42:08Z</time>
      </trkpt>
      <trkpt lat="42.21908" lon="-1.46184">
        <ele>301</ele>
        <time>2010-11-06T19:42:29Z</time>
      </trkpt>
      <trkpt lat="42.21793" lon="-1.46359">
        <ele>291</ele>
        <time>2010-11-06T19:43:17Z</time>
      </trkpt>
      <trkpt lat="42.21691" lon="-1.46165">
        <ele>296</ele>
        <time>2010-11-06T19:44:04Z</time>
      </trkpt>
      <trkpt lat="42.21577" lon="-1.46019">
        <ele>299</ele>
        <time>2010-11-06T19:44:46Z</time>
      </trkpt>
      <trkpt lat="42.21447" lon="-1.4579">
        <ele>299</ele>
        <time>2010-11-06T19:45:43Z</time>
      </trkpt>
      <trkpt lat="42.21358" lon="-1.45732">
        <ele>303</ele>
        <time>2010-11-06T19:46:09Z</time>
      </trkpt>
      <trkpt lat="42.20375" lon="-1.44423">
        <ele>311</ele>
        <time>2010-11-06T19:52:18Z</time>
      </trkpt>
      <trkpt lat="42.1987" lon="-1.43716">
        <ele>315</ele>
        <time>2010-11-06T19:55:32Z</time>
      </trkpt>
      <trkpt lat="42.19847" lon="-1.43382">
        <ele>330</ele>
        <time>2010-11-06T19:56:39Z</time>
      </trkpt>
      <trkpt lat="42.19738" lon="-1.43024">
        <ele>345</ele>
        <time>2010-11-06T19:57:56Z</time>
      </trkpt>
      <trkpt lat="42.19706" lon="-1.42966">
        <ele>346</ele>
        <time>2010-11-06T19:58:11Z</time>
      </trkpt>
      <trkpt lat="42.19674" lon="-1.42794">
        <ele>340</ele>
        <time>2010-11-06T19:58:46Z</time>
      </trkpt>
      <trkpt lat="42.19593" lon="-1.4203">
        <ele>346</ele>
        <time>2010-11-06T20:01:19Z</time>
      </trkpt>
      <trkpt lat="42.19393" lon="-1.41351">
        <ele>341</ele>
        <time>2010-11-06T20:03:43Z</time>
      </trkpt>
      <trkpt lat="42.19377" lon="-1.41327">
        <ele>341</ele>
        <time>2010-11-06T20:03:49Z</time>
      </trkpt>
      <trkpt lat="42.1904" lon="-1.41177">
        <ele>336</ele>
        <time>2010-11-06T20:05:25Z</time>
      </trkpt>
      <trkpt lat="42.18753" lon="-1.41191">
        <ele>322</ele>
        <time>2010-11-06T20:06:41Z</time>
      </trkpt>
      <trkpt lat="42.18474" lon="-1.41029">
        <ele>318</ele>
        <time>2010-11-06T20:08:02Z</time>
      </trkpt>
      <trkpt lat="42.18343" lon="-1.40977">
        <ele>325</ele>
        <time>2010-11-06T20:08:39Z</time>
      </trkpt>
      <trkpt lat="42.1826" lon="-1.40849">
        <ele>327</ele>
        <time>2010-11-06T20:09:12Z</time>
      </trkpt>
      <trkpt lat="42.18103" lon="-1.40728">
        <ele>330</ele>
        <time>2010-11-06T20:10:01Z</time>
      </trkpt>
      <trkpt lat="42.17995" lon="-1.4073">
        <ele>332</ele>
        <time>2010-11-06T20:10:30Z</time>
      </trkpt>
      <trkpt lat="42.17872" lon="-1.40865">
        <ele>334</ele>
        <time>2010-11-06T20:11:12Z</time>
      </trkpt>
      <trkpt lat="42.17791" lon="-1.41003">
        <ele>332</ele>
        <time>2010-11-06T20:11:47Z</time>
      </trkpt>
      <trkpt lat="42.17699" lon="-1.41292">
        <ele>329</ele>
        <time>2010-11-06T20:12:50Z</time>
      </trkpt>
      <trkpt lat="42.17143" lon="-1.41977">
        <ele>331</ele>
        <time>2010-11-06T20:16:11Z</time>
      </trkpt>
      <trkpt lat="42.17" lon="-1.42271">
        <ele>319</ele>
        <time>2010-11-06T20:17:19Z</time>
      </trkpt>
      <trkpt lat="42.1689" lon="-1.42405">
        <ele>305</ele>
        <time>2010-11-06T20:17:59Z</time>
      </trkpt>
      <trkpt lat="42.16837" lon="-1.42443">
        <ele>301</ele>
        <time>2010-11-06T20:18:15Z</time>
      </trkpt>
      <trkpt lat="42.16699" lon="-1.42649">
        <ele>312</ele>
        <time>2010-11-06T20:19:11Z</time>
      </trkpt>
      <trkpt lat="42.1633" lon="-1.43069">
        <ele>315</ele>
        <time>2010-11-06T20:21:20Z</time>
      </trkpt>
      <trkpt lat="42.16283" lon="-1.43245">
        <ele>310</ele>
        <time>2010-11-06T20:21:58Z</time>
      </trkpt>
      <trkpt lat="42.16251" lon="-1.43295">
        <ele>306</ele>
        <time>2010-11-06T20:22:11Z</time>
      </trkpt>
      <trkpt lat="42.16211" lon="-1.43287">
        <ele>307</ele>
        <time>2010-11-06T20:22:20Z</time>
      </trkpt>
      <trkpt lat="42.16182" lon="-1.43252">
        <ele>309</ele>
        <time>2010-11-06T20:22:31Z</time>
      </trkpt>
      <trkpt lat="42.16134" lon="-1.43138">
        <ele>303</ele>
        <time>2010-11-06T20:22:58Z</time>
      </trkpt>
      <trkpt lat="42.16074" lon="-1.43081">
        <ele>299</ele>
        <time>2010-11-06T20:23:17Z</time>
      </trkpt>
      <trkpt lat="42.16001" lon="-1.43036">
        <ele>312</ele>
        <time>2010-11-06T20:23:38Z</time>
      </trkpt>
      <trkpt lat="42.15825" lon="-1.42873">
        <ele>306</ele>
        <time>2010-11-06T20:24:36Z</time>
      </trkpt>
      <trkpt lat="42.15726" lon="-1.42847">
        <ele>307</ele>
        <time>2010-11-06T20:25:03Z</time>
      </trkpt>
      <trkpt lat="42.15549" lon="-1.42655">
        <ele>313</ele>
        <time>2010-11-06T20:26:03Z</time>
      </trkpt>
      <trkpt lat="42.15461" lon="-1.42684">
        <ele>318</ele>
        <time>2010-11-06T20:26:29Z</time>
      </trkpt>
      <trkpt lat="42.15345" lon="-1.42584">
        <ele>326</ele>
        <time>2010-11-06T20:27:05Z</time>
      </trkpt>
      <trkpt lat="42.152" lon="-1.42527">
        <ele>327</ele>
        <time>2010-11-06T20:27:45Z</time>
      </trkpt>
      <trkpt lat="42.15111" lon="-1.42552">
        <ele>332</ele>
        <time>2010-11-06T20:28:10Z</time>
      </trkpt>
      <trkpt lat="42.14986" lon="-1.42618">
        <ele>337</ele>
        <time>2010-11-06T20:28:46Z</time>
      </trkpt>
      <trkpt lat="42.14914" lon="-1.42588">
        <ele>338</ele>
        <time>2010-11-06T20:29:06Z</time>
      </trkpt>
      <trkpt lat="42.14814" lon="-1.42493">
        <ele>351</ele>
        <time>2010-11-06T20:29:40Z</time>
      </trkpt>
      <trkpt lat="42.14782" lon="-1.42542">
        <ele>354</ele>
        <time>2010-11-06T20:29:54Z</time>
      </trkpt>
      <trkpt lat="42.14754" lon="-1.42552">
        <ele>356</ele>
        <time>2010-11-06T20:30:00Z</time>
      </trkpt>
      <trkpt lat="42.1466" lon="-1.42544">
        <ele>359</ele>
        <time>2010-11-06T20:30:26Z</time>
      </trkpt>
      <trkpt lat="42.14618" lon="-1.42558">
        <ele>360</ele>
        <time>2010-11-06T20:30:37Z</time>
      </trkpt>
      <trkpt lat="42.14564" lon="-1.4254">
        <ele>362</ele>
        <time>2010-11-06T20:30:53Z</time>
      </trkpt>
      <trkpt lat="42.14514" lon="-1.42446">
        <ele>368</ele>
        <time>2010-11-06T20:31:15Z</time>
      </trkpt>
      <trkpt lat="42.14506" lon="-1.42265">
        <ele>378</ele>
        <time>2010-11-06T20:31:52Z</time>
      </trkpt>
      <trkpt lat="42.14403" lon="-1.42153">
        <ele>390</ele>
        <time>2010-11-06T20:32:28Z</time>
      </trkpt>
      <trkpt lat="42.14392" lon="-1.4211">
        <ele>390</ele>
        <time>2010-11-06T20:32:36Z</time>
      </trkpt>
      <trkpt lat="42.14364" lon="-1.42085">
        <ele>391</ele>
        <time>2010-11-06T20:32:46Z</time>
      </trkpt>
      <trkpt lat="42.14242" lon="-1.42068">
        <ele>413</ele>
        <time>2010-11-06T20:33:19Z</time>
      </trkpt>
      <trkpt lat="42.1418" lon="-1.42109">
        <ele>428</ele>
        <time>2010-11-06T20:33:37Z</time>
      </trkpt>
      <trkpt lat="42.14148" lon="-1.42096">
        <ele>419</ele>
        <time>2010-11-06T20:33:46Z</time>
      </trkpt>
      <trkpt lat="42.14105" lon="-1.42115">
        <ele>423</ele>
        <time>2010-11-06T20:33:59Z</time>
      </trkpt>
      <trkpt lat="42.14077" lon="-1.42146">
        <ele>428</ele>
        <time>2010-11-06T20:34:09Z</time>
      </trkpt>
      <trkpt lat="42.13991" lon="-1.42185">
        <ele>445</ele>
        <time>2010-11-06T20:34:33Z</time>
      </trkpt>
      <trkpt lat="42.13837" lon="-1.42135">
        <ele>427</ele>
        <time>2010-11-06T20:35:16Z</time>
      </trkpt>
      <trkpt lat="42.13799" lon="-1.42105">
        <ele>430</ele>
        <time>2010-11-06T20:35:27Z</time>
      </trkpt>
      <trkpt lat="42.13714" lon="-1.42116">
        <ele>432</ele>
        <time>2010-11-06T20:35:51Z</time>
      </trkpt>
      <trkpt lat="42.13673" lon="-1.4214">
        <ele>428</ele>
        <time>2010-11-06T20:36:02Z</time>
      </trkpt>
      <trkpt lat="42.13635" lon="-1.4226">
        <ele>430</ele>
        <time>2010-11-06T20:36:29Z</time>
      </trkpt>
      <trkpt lat="42.13504" lon="-1.42333">
        <ele>436</ele>
        <time>2010-11-06T20:37:07Z</time>
      </trkpt>
      <trkpt lat="42.13418" lon="-1.42314">
        <ele>440</ele>
        <time>2010-11-06T20:37:29Z</time>
      </trkpt>
      <trkpt lat="42.13405" lon="-1.42325">
        <ele>440</ele>
        <time>2010-11-06T20:37:34Z</time>
      </trkpt>
      <trkpt lat="42.13407" lon="-1.42339">
        <ele>440</ele>
        <time>2010-11-06T20:37:37Z</time>
      </trkpt>
      <trkpt lat="42.13455" lon="-1.42352">
        <ele>439</ele>
        <time>2010-11-06T20:37:50Z</time>
      </trkpt>
      <trkpt lat="42.13479" lon="-1.42392">
        <ele>439</ele>
        <time>2010-11-06T20:38:00Z</time>
      </trkpt>
      <trkpt lat="42.13492" lon="-1.42474">
        <ele>444</ele>
        <time>2010-11-06T20:38:17Z</time>
      </trkpt>
      <trkpt lat="42.1346" lon="-1.42571">
        <ele>448</ele>
        <time>2010-11-06T20:38:38Z</time>
      </trkpt>
      <trkpt lat="42.13335" lon="-1.42623">
        <ele>456</ele>
        <time>2010-11-06T20:39:13Z</time>
      </trkpt>
      <trkpt lat="42.13224" lon="-1.42927">
        <ele>448</ele>
        <time>2010-11-06T20:40:21Z</time>
      </trkpt>
      <trkpt lat="42.13179" lon="-1.42988">
        <ele>445</ele>
        <time>2010-11-06T20:40:37Z</time>
      </trkpt>
      <trkpt lat="42.13135" lon="-1.43008">
        <ele>447</ele>
        <time>2010-11-06T20:40:50Z</time>
      </trkpt>
      <trkpt lat="42.13081" lon="-1.43063">
        <ele>450</ele>
        <time>2010-11-06T20:41:07Z</time>
      </trkpt>
      <trkpt lat="42.13024" lon="-1.4315">
        <ele>444</ele>
        <time>2010-11-06T20:41:30Z</time>
      </trkpt>
      <trkpt lat="42.12992" lon="-1.43247">
        <ele>447</ele>
        <time>2010-11-06T20:41:52Z</time>
      </trkpt>
      <trkpt lat="42.12901" lon="-1.43341">
        <ele>436</ele>
        <time>2010-11-06T20:42:22Z</time>
      </trkpt>
      <trkpt lat="42.12807" lon="-1.4347">
        <ele>421</ele>
        <time>2010-11-06T20:42:59Z</time>
      </trkpt>
      <trkpt lat="42.12786" lon="-1.43524">
        <ele>419</ele>
        <time>2010-11-06T20:43:11Z</time>
      </trkpt>
      <trkpt lat="42.12773" lon="-1.43525">
        <ele>419</ele>
        <time>2010-11-06T20:43:15Z</time>
      </trkpt>
      <trkpt lat="42.12673" lon="-1.43437">
        <ele>426</ele>
        <time>2010-11-06T20:43:47Z</time>
      </trkpt>
      <trkpt lat="42.12625" lon="-1.43418">
        <ele>431</ele>
        <time>2010-11-06T20:43:59Z</time>
      </trkpt>
      <trkpt lat="42.12545" lon="-1.43265">
        <ele>424</ele>
        <time>2010-11-06T20:44:38Z</time>
      </trkpt>
      <trkpt lat="42.12463" lon="-1.43158">
        <ele>426</ele>
        <time>2010-11-06T20:45:08Z</time>
      </trkpt>
      <trkpt lat="42.12417" lon="-1.43138">
        <ele>426</ele>
        <time>2010-11-06T20:45:20Z</time>
      </trkpt>
      <trkpt lat="42.1239" lon="-1.43104">
        <ele>427</ele>
        <time>2010-11-06T20:45:30Z</time>
      </trkpt>
      <trkpt lat="42.12309" lon="-1.43109">
        <ele>426</ele>
        <time>2010-11-06T20:45:52Z</time>
      </trkpt>
      <trkpt lat="42.12263" lon="-1.43028">
        <ele>422</ele>
        <time>2010-11-06T20:46:13Z</time>
      </trkpt>
      <trkpt lat="42.12177" lon="-1.42958">
        <ele>428</ele>
        <time>2010-11-06T20:46:40Z</time>
      </trkpt>
      <trkpt lat="42.12154" lon="-1.42815">
        <ele>426</ele>
        <time>2010-11-06T20:47:10Z</time>
      </trkpt>
      <trkpt lat="42.12109" lon="-1.42704">
        <ele>421</ele>
        <time>2010-11-06T20:47:34Z</time>
      </trkpt>
      <trkpt lat="42.12075" lon="-1.42662">
        <ele>420</ele>
        <time>2010-11-06T20:47:47Z</time>
      </trkpt>
      <trkpt lat="42.12043" lon="-1.4263">
        <ele>419</ele>
        <time>2010-11-06T20:47:58Z</time>
      </trkpt>
      <trkpt lat="42.11899" lon="-1.426">
        <ele>422</ele>
        <time>2010-11-06T20:48:36Z</time>
      </trkpt>
      <trkpt lat="42.11893" lon="-1.42585">
        <ele>422</ele>
        <time>2010-11-06T20:48:39Z</time>
      </trkpt>
      <trkpt lat="42.1195" lon="-1.42401">
        <ele>423</ele>
        <time>2010-11-06T20:49:21Z</time>
      </trkpt>
      <trkpt lat="42.11921" lon="-1.42227">
        <ele>418</ele>
        <time>2010-11-06T20:49:56Z</time>
      </trkpt>
      <trkpt lat="42.11904" lon="-1.41933">
        <ele>416</ele>
        <time>2010-11-06T20:50:55Z</time>
      </trkpt>
      <trkpt lat="42.11912" lon="-1.41798">
        <ele>420</ele>
        <time>2010-11-06T20:51:22Z</time>
      </trkpt>
      <trkpt lat="42.11945" lon="-1.41752">
        <ele>423</ele>
        <time>2010-11-06T20:51:35Z</time>
      </trkpt>
      <trkpt lat="42.11944" lon="-1.41549">
        <ele>437</ele>
        <time>2010-11-06T20:52:16Z</time>
      </trkpt>
      <trkpt lat="42.12001" lon="-1.41499">
        <ele>436</ele>
        <time>2010-11-06T20:52:34Z</time>
      </trkpt>
      <trkpt lat="42.12151" lon="-1.41494">
        <ele>440</ele>
        <time>2010-11-06T20:53:15Z</time>
      </trkpt>
      <trkpt lat="42.12295" lon="-1.41423">
        <ele>433</ele>
        <time>2010-11-06T20:53:55Z</time>
      </trkpt>
      <trkpt lat="42.12334" lon="-1.41422">
        <ele>433</ele>
        <time>2010-11-06T20:54:06Z</time>
      </trkpt>
      <trkpt lat="42.12367" lon="-1.41405">
        <ele>434</ele>
        <time>2010-11-06T20:54:15Z</time>
      </trkpt>
      <trkpt lat="42.12371" lon="-1.41374">
        <ele>429</ele>
        <time>2010-11-06T20:54:22Z</time>
      </trkpt>
      <trkpt lat="42.12326" lon="-1.4124">
        <ele>427</ele>
        <time>2010-11-06T20:54:52Z</time>
      </trkpt>
      <trkpt lat="42.12259" lon="-1.41212">
        <ele>428</ele>
        <time>2010-11-06T20:55:10Z</time>
      </trkpt>
      <trkpt lat="42.12241" lon="-1.41145">
        <ele>433</ele>
        <time>2010-11-06T20:55:24Z</time>
      </trkpt>
      <trkpt lat="42.12239" lon="-1.41063">
        <ele>438</ele>
        <time>2010-11-06T20:55:40Z</time>
      </trkpt>
      <trkpt lat="42.12169" lon="-1.4102">
        <ele>438</ele>
        <time>2010-11-06T20:56:00Z</time>
      </trkpt>
      <trkpt lat="42.12077" lon="-1.41013">
        <ele>433</ele>
        <time>2010-11-06T20:56:26Z</time>
      </trkpt>
      <trkpt lat="42.12071" lon="-1.40971">
        <ele>434</ele>
        <time>2010-11-06T20:56:34Z</time>
      </trkpt>
      <trkpt lat="42.12115" lon="-1.40863">
        <ele>433</ele>
        <time>2010-11-06T20:56:59Z</time>
      </trkpt>
      <trkpt lat="42.12153" lon="-1.40855">
        <ele>440</ele>
        <time>2010-11-06T20:57:09Z</time>
      </trkpt>
      <trkpt lat="42.12177" lon="-1.40821">
        <ele>439</ele>
        <time>2010-11-06T20:57:18Z</time>
      </trkpt>
      <trkpt lat="42.12298" lon="-1.40728">
        <ele>457</ele>
        <time>2010-11-06T20:57:57Z</time>
      </trkpt>
      <trkpt lat="42.12368" lon="-1.40694">
        <ele>456</ele>
        <time>2010-11-06T20:58:16Z</time>
      </trkpt>
      <trkpt lat="42.12415" lon="-1.40637">
        <ele>453</ele>
        <time>2010-11-06T20:58:33Z</time>
      </trkpt>
      <trkpt lat="42.12433" lon="-1.4056">
        <ele>454</ele>
        <time>2010-11-06T20:58:49Z</time>
      </trkpt>
      <trkpt lat="42.12263" lon="-1.40485">
        <ele>443</ele>
        <time>2010-11-06T20:59:39Z</time>
      </trkpt>
      <trkpt lat="42.12071" lon="-1.40365">
        <ele>446</ele>
        <time>2010-11-06T21:00:34Z</time>
      </trkpt>
      <trkpt lat="42.12046" lon="-1.40366">
        <ele>444</ele>
        <time>2010-11-06T21:00:42Z</time>
      </trkpt>
      <trkpt lat="42.11987" lon="-1.40328">
        <ele>441</ele>
        <time>2010-11-06T21:00:58Z</time>
      </trkpt>
      <trkpt lat="42.11973" lon="-1.40299">
        <ele>439</ele>
        <time>2010-11-06T21:01:06Z</time>
      </trkpt>
      <trkpt lat="42.11908" lon="-1.40273">
        <ele>431</ele>
        <time>2010-11-06T21:01:24Z</time>
      </trkpt>
      <trkpt lat="42.11869" lon="-1.40223">
        <ele>432</ele>
        <time>2010-11-06T21:01:39Z</time>
      </trkpt>
      <trkpt lat="42.11864" lon="-1.40188">
        <ele>432</ele>
        <time>2010-11-06T21:01:46Z</time>
      </trkpt>
      <trkpt lat="42.11786" lon="-1.4019">
        <ele>434</ele>
        <time>2010-11-06T21:02:07Z</time>
      </trkpt>
      <trkpt lat="42.11771" lon="-1.40179">
        <ele>430</ele>
        <time>2010-11-06T21:02:11Z</time>
      </trkpt>
      <trkpt lat="42.11742" lon="-1.40145">
        <ele>428</ele>
        <time>2010-11-06T21:02:21Z</time>
      </trkpt>
      <trkpt lat="42.11713" lon="-1.4004">
        <ele>422</ele>
        <time>2010-11-06T21:02:43Z</time>
      </trkpt>
      <trkpt lat="42.11658" lon="-1.39948">
        <ele>423</ele>
        <time>2010-11-06T21:03:07Z</time>
      </trkpt>
      <trkpt lat="42.11656" lon="-1.39911">
        <ele>423</ele>
        <time>2010-11-06T21:03:15Z</time>
      </trkpt>
      <trkpt lat="42.11603" lon="-1.3987">
        <ele>424</ele>
        <time>2010-11-06T21:03:31Z</time>
      </trkpt>
      <trkpt lat="42.11596" lon="-1.39838">
        <ele>424</ele>
        <time>2010-11-06T21:03:37Z</time>
      </trkpt>
      <trkpt lat="42.11549" lon="-1.39782">
        <ele>420</ele>
        <time>2010-11-06T21:03:55Z</time>
      </trkpt>
      <trkpt lat="42.1131" lon="-1.39565">
        <ele>412</ele>
        <time>2010-11-06T21:05:11Z</time>
      </trkpt>
      <trkpt lat="42.11195" lon="-1.39477">
        <ele>413</ele>
        <time>2010-11-06T21:05:48Z</time>
      </trkpt>
      <trkpt lat="42.11146" lon="-1.39464">
        <ele>414</ele>
        <time>2010-11-06T21:06:01Z</time>
      </trkpt>
      <trkpt lat="42.11161" lon="-1.39365">
        <ele>417</ele>
        <time>2010-11-06T21:06:21Z</time>
      </trkpt>
      <trkpt lat="42.11044" lon="-1.39292">
        <ele>410</ele>
        <time>2010-11-06T21:06:56Z</time>
      </trkpt>
      <trkpt lat="42.10634" lon="-1.38694">
        <ele>412</ele>
        <time>2010-11-06T21:09:37Z</time>
      </trkpt>
      <trkpt lat="42.10562" lon="-1.38467">
        <ele>417</ele>
        <time>2010-11-06T21:10:27Z</time>
      </trkpt>
      <trkpt lat="42.10557" lon="-1.38224">
        <ele>434</ele>
        <time>2010-11-06T21:11:16Z</time>
      </trkpt>
      <trkpt lat="42.10633" lon="-1.38182">
        <ele>439</ele>
        <time>2010-11-06T21:11:38Z</time>
      </trkpt>
      <trkpt lat="42.10719" lon="-1.38094">
        <ele>450</ele>
        <time>2010-11-06T21:12:07Z</time>
      </trkpt>
      <trkpt lat="42.10784" lon="-1.38062">
        <ele>454</ele>
        <time>2010-11-06T21:12:24Z</time>
      </trkpt>
      <trkpt lat="42.10827" lon="-1.38015">
        <ele>458</ele>
        <time>2010-11-06T21:12:39Z</time>
      </trkpt>
      <trkpt lat="42.10883" lon="-1.38">
        <ele>459</ele>
        <time>2010-11-06T21:12:55Z</time>
      </trkpt>
      <trkpt lat="42.10936" lon="-1.37911">
        <ele>465</ele>
        <time>2010-11-06T21:13:17Z</time>
      </trkpt>
      <trkpt lat="42.10979" lon="-1.37892">
        <ele>469</ele>
        <time>2010-11-06T21:13:30Z</time>
      </trkpt>
      <trkpt lat="42.11017" lon="-1.37896">
        <ele>467</ele>
        <time>2010-11-06T21:13:39Z</time>
      </trkpt>
      <trkpt lat="42.11127" lon="-1.37665">
        <ele>484</ele>
        <time>2010-11-06T21:14:36Z</time>
      </trkpt>
      <trkpt lat="42.11141" lon="-1.37593">
        <ele>502</ele>
        <time>2010-11-06T21:14:51Z</time>
      </trkpt>
      <trkpt lat="42.11161" lon="-1.37563">
        <ele>495</ele>
        <time>2010-11-06T21:14:59Z</time>
      </trkpt>
      <trkpt lat="42.11192" lon="-1.37547">
        <ele>485</ele>
        <time>2010-11-06T21:15:08Z</time>
      </trkpt>
      <trkpt lat="42.11196" lon="-1.37515">
        <ele>487</ele>
        <time>2010-11-06T21:15:15Z</time>
      </trkpt>
      <trkpt lat="42.1117" lon="-1.37421">
        <ele>495</ele>
        <time>2010-11-06T21:15:34Z</time>
      </trkpt>
      <trkpt lat="42.11099" lon="-1.37341">
        <ele>504</ele>
        <time>2010-11-06T21:15:59Z</time>
      </trkpt>
      <trkpt lat="42.11008" lon="-1.37309">
        <ele>526</ele>
        <time>2010-11-06T21:16:25Z</time>
      </trkpt>
      <trkpt lat="42.10979" lon="-1.37282">
        <ele>526</ele>
        <time>2010-11-06T21:16:34Z</time>
      </trkpt>
      <trkpt lat="42.10905" lon="-1.37124">
        <ele>532</ele>
        <time>2010-11-06T21:17:12Z</time>
      </trkpt>
      <trkpt lat="42.10835" lon="-1.371">
        <ele>532</ele>
        <time>2010-11-06T21:17:32Z</time>
      </trkpt>
      <trkpt lat="42.10814" lon="-1.37075">
        <ele>532</ele>
        <time>2010-11-06T21:17:38Z</time>
      </trkpt>
      <trkpt lat="42.1076" lon="-1.3708">
        <ele>532</ele>
        <time>2010-11-06T21:17:54Z</time>
      </trkpt>
      <trkpt lat="42.10728" lon="-1.37059">
        <ele>537</ele>
        <time>2010-11-06T21:18:03Z</time>
      </trkpt>
      <trkpt lat="42.10694" lon="-1.3707">
        <ele>537</ele>
        <time>2010-11-06T21:18:13Z</time>
      </trkpt>
      <trkpt lat="42.10661" lon="-1.37107">
        <ele>535</ele>
        <time>2010-11-06T21:18:24Z</time>
      </trkpt>
      <trkpt lat="42.10609" lon="-1.37112">
        <ele>535</ele>
        <time>2010-11-06T21:18:38Z</time>
      </trkpt>
      <trkpt lat="42.10559" lon="-1.371">
        <ele>531</ele>
        <time>2010-11-06T21:18:51Z</time>
      </trkpt>
      <trkpt lat="42.10541" lon="-1.37071">
        <ele>531</ele>
        <time>2010-11-06T21:18:59Z</time>
      </trkpt>
      <trkpt lat="42.10516" lon="-1.36983">
        <ele>542</ele>
        <time>2010-11-06T21:19:18Z</time>
      </trkpt>
      <trkpt lat="42.10554" lon="-1.36889">
        <ele>547</ele>
        <time>2010-11-06T21:19:39Z</time>
      </trkpt>
      <trkpt lat="42.10644" lon="-1.36816">
        <ele>551</ele>
        <time>2010-11-06T21:20:09Z</time>
      </trkpt>
      <trkpt lat="42.10732" lon="-1.36521">
        <ele>542</ele>
        <time>2010-11-06T21:21:11Z</time>
      </trkpt>
      <trkpt lat="42.10538" lon="-1.36373">
        <ele>536</ele>
        <time>2010-11-06T21:22:12Z</time>
      </trkpt>
      <trkpt lat="42.10413" lon="-1.36246">
        <ele>531</ele>
        <time>2010-11-06T21:22:53Z</time>
      </trkpt>
      <trkpt lat="42.09756" lon="-1.36167">
        <ele>537</ele>
        <time>2010-11-06T21:25:50Z</time>
      </trkpt>
      <trkpt lat="42.09099" lon="-1.36433">
        <ele>528</ele>
        <time>2010-11-06T21:28:53Z</time>
      </trkpt>
      <trkpt lat="42.08997" lon="-1.36358">
        <ele>525</ele>
        <time>2010-11-06T21:29:23Z</time>
      </trkpt>
      <trkpt lat="42.08602" lon="-1.35955">
        <ele>518</ele>
        <time>2010-11-06T21:31:35Z</time>
      </trkpt>
      <trkpt lat="42.07848" lon="-1.35499">
        <ele>520</ele>
        <time>2010-11-06T21:35:15Z</time>
      </trkpt>
      <trkpt lat="42.07607" lon="-1.35388">
        <ele>527</ele>
        <time>2010-11-06T21:36:23Z</time>
      </trkpt>
      <trkpt lat="42.07587" lon="-1.35356">
        <ele>529</ele>
        <time>2010-11-06T21:36:33Z</time>
      </trkpt>
      <trkpt lat="42.07588" lon="-1.35282">
        <ele>533</ele>
        <time>2010-11-06T21:36:47Z</time>
      </trkpt>
      <trkpt lat="42.0757" lon="-1.35268">
        <ele>533</ele>
        <time>2010-11-06T21:36:52Z</time>
      </trkpt>
      <trkpt lat="42.07532" lon="-1.35274">
        <ele>536</ele>
        <time>2010-11-06T21:37:03Z</time>
      </trkpt>
      <trkpt lat="42.07498" lon="-1.35253">
        <ele>541</ele>
        <time>2010-11-06T21:37:13Z</time>
      </trkpt>
      <trkpt lat="42.07466" lon="-1.35198">
        <ele>548</ele>
        <time>2010-11-06T21:37:27Z</time>
      </trkpt>
      <trkpt lat="42.07442" lon="-1.35121">
        <ele>556</ele>
        <time>2010-11-06T21:37:43Z</time>
      </trkpt>
      <trkpt lat="42.07449" lon="-1.35082">
        <ele>555</ele>
        <time>2010-11-06T21:37:51Z</time>
      </trkpt>
      <trkpt lat="42.07404" lon="-1.34984">
        <ele>554</ele>
        <time>2010-11-06T21:38:15Z</time>
      </trkpt>
      <trkpt lat="42.07218" lon="-1.34827">
        <ele>593</ele>
        <time>2010-11-06T21:39:14Z</time>
      </trkpt>
      <trkpt lat="42.07164" lon="-1.34571">
        <ele>604</ele>
        <time>2010-11-06T21:40:06Z</time>
      </trkpt>
      <trkpt lat="42.07146" lon="-1.34279">
        <ele>628</ele>
        <time>2010-11-06T21:41:05Z</time>
      </trkpt>
      <trkpt lat="42.07169" lon="-1.34051">
        <ele>637</ele>
        <time>2010-11-06T21:41:50Z</time>
      </trkpt>
      <trkpt lat="42.07196" lon="-1.33972">
        <ele>637</ele>
        <time>2010-11-06T21:42:09Z</time>
      </trkpt>
      <trkpt lat="42.07206" lon="-1.33787">
        <ele>639</ele>
        <time>2010-11-06T21:42:46Z</time>
      </trkpt>
      <trkpt lat="42.07258" lon="-1.33608">
        <ele>638</ele>
        <time>2010-11-06T21:43:24Z</time>
      </trkpt>
      <trkpt lat="42.07265" lon="-1.33436">
        <ele>633</ele>
        <time>2010-11-06T21:43:57Z</time>
      </trkpt>
      <trkpt lat="42.07294" lon="-1.33252">
        <ele>632</ele>
        <time>2010-11-06T21:44:35Z</time>
      </trkpt>
      <trkpt lat="42.07275" lon="-1.33137">
        <ele>633</ele>
        <time>2010-11-06T21:44:58Z</time>
      </trkpt>
      <trkpt lat="42.0727" lon="-1.32874">
        <ele>640</ele>
        <time>2010-11-06T21:45:50Z</time>
      </trkpt>
      <trkpt lat="42.07278" lon="-1.32711">
        <ele>640</ele>
        <time>2010-11-06T21:46:24Z</time>
      </trkpt>
      <trkpt lat="42.07309" lon="-1.32508">
        <ele>637</ele>
        <time>2010-11-06T21:47:05Z</time>
      </trkpt>
      <trkpt lat="42.07282" lon="-1.32311">
        <ele>633</ele>
        <time>2010-11-06T21:47:45Z</time>
      </trkpt>
      <trkpt lat="42.07226" lon="-1.3222">
        <ele>633</ele>
        <time>2010-11-06T21:48:07Z</time>
      </trkpt>
      <trkpt lat="42.07198" lon="-1.32045">
        <ele>635</ele>
        <time>2010-11-06T21:48:44Z</time>
      </trkpt>
      <trkpt lat="42.07219" lon="-1.31669">
        <ele>635</ele>
        <time>2010-11-06T21:49:59Z</time>
      </trkpt>
      <trkpt lat="42.07289" lon="-1.31454">
        <ele>636</ele>
        <time>2010-11-06T21:50:45Z</time>
      </trkpt>
      <trkpt lat="42.07301" lon="-1.31357">
        <ele>633</ele>
        <time>2010-11-06T21:51:04Z</time>
      </trkpt>
      <trkpt lat="42.07252" lon="-1.311">
        <ele>642</ele>
        <time>2010-11-06T21:51:58Z</time>
      </trkpt>
      <trkpt lat="42.0722" lon="-1.31052">
        <ele>634</ele>
        <time>2010-11-06T21:52:11Z</time>
      </trkpt>
      <trkpt lat="42.06942" lon="-1.31273">
        <ele>623</ele>
        <time>2010-11-06T21:53:37Z</time>
      </trkpt>
      <trkpt lat="42.06662" lon="-1.31251">
        <ele>624</ele>
        <time>2010-11-06T21:54:51Z</time>
      </trkpt>
      <trkpt lat="42.06591" lon="-1.31208">
        <ele>625</ele>
        <time>2010-11-06T21:55:12Z</time>
      </trkpt>
      <trkpt lat="42.06567" lon="-1.31208">
        <ele>627</ele>
        <time>2010-11-06T21:55:20Z</time>
      </trkpt>
      <trkpt lat="42.06514" lon="-1.3127">
        <ele>628</ele>
        <time>2010-11-06T21:55:38Z</time>
      </trkpt>
      <trkpt lat="42.06414" lon="-1.31213">
        <ele>619</ele>
        <time>2010-11-06T21:56:08Z</time>
      </trkpt>
      <trkpt lat="42.06336" lon="-1.31215">
        <ele>626</ele>
        <time>2010-11-06T21:56:29Z</time>
      </trkpt>
      <trkpt lat="42.06241" lon="-1.31117">
        <ele>626</ele>
        <time>2010-11-06T21:57:00Z</time>
      </trkpt>
      <trkpt lat="42.06215" lon="-1.3099">
        <ele>627</ele>
        <time>2010-11-06T21:57:26Z</time>
      </trkpt>
      <trkpt lat="42.06082" lon="-1.30843">
        <ele>610</ele>
        <time>2010-11-06T21:58:12Z</time>
      </trkpt>
      <trkpt lat="42.06012" lon="-1.30806">
        <ele>614</ele>
        <time>2010-11-06T21:58:33Z</time>
      </trkpt>
      <trkpt lat="42.05899" lon="-1.30695">
        <ele>608</ele>
        <time>2010-11-06T21:59:11Z</time>
      </trkpt>
      <trkpt lat="42.05863" lon="-1.30722">
        <ele>613</ele>
        <time>2010-11-06T21:59:22Z</time>
      </trkpt>
      <trkpt lat="42.05835" lon="-1.3077">
        <ele>620</ele>
        <time>2010-11-06T21:59:33Z</time>
      </trkpt>
      <trkpt lat="42.0574" lon="-1.30824">
        <ele>621</ele>
        <time>2010-11-06T22:00:00Z</time>
      </trkpt>
      <trkpt lat="42.05713" lon="-1.30806">
        <ele>618</ele>
        <time>2010-11-06T22:00:10Z</time>
      </trkpt>
      <trkpt lat="42.05673" lon="-1.3069">
        <ele>613</ele>
        <time>2010-11-06T22:00:34Z</time>
      </trkpt>
      <trkpt lat="42.05636" lon="-1.30664">
        <ele>611</ele>
        <time>2010-11-06T22:00:46Z</time>
      </trkpt>
      <trkpt lat="42.05514" lon="-1.30631">
        <ele>616</ele>
        <time>2010-11-06T22:01:20Z</time>
      </trkpt>
      <trkpt lat="42.05484" lon="-1.30611">
        <ele>617</ele>
        <time>2010-11-06T22:01:28Z</time>
      </trkpt>
      <trkpt lat="42.05461" lon="-1.30563">
        <ele>612</ele>
        <time>2010-11-06T22:01:40Z</time>
      </trkpt>
      <trkpt lat="42.05412" lon="-1.30535">
        <ele>613</ele>
        <time>2010-11-06T22:01:53Z</time>
      </trkpt>
      <trkpt lat="42.05282" lon="-1.30392">
        <ele>602</ele>
        <time>2010-11-06T22:02:38Z</time>
      </trkpt>
      <trkpt lat="42.05237" lon="-1.30287">
        <ele>587</ele>
        <time>2010-11-06T22:03:03Z</time>
      </trkpt>
      <trkpt lat="42.05205" lon="-1.30264">
        <ele>578</ele>
        <time>2010-11-06T22:03:13Z</time>
      </trkpt>
      <trkpt lat="42.05176" lon="-1.30283">
        <ele>584</ele>
        <time>2010-11-06T22:03:23Z</time>
      </trkpt>
      <trkpt lat="42.05154" lon="-1.30339">
        <ele>598</ele>
        <time>2010-11-06T22:03:35Z</time>
      </trkpt>
      <trkpt lat="42.05108" lon="-1.30379">
        <ele>602</ele>
        <time>2010-11-06T22:03:50Z</time>
      </trkpt>
      <trkpt lat="42.0501" lon="-1.30412">
        <ele>585</ele>
        <time>2010-11-06T22:04:18Z</time>
      </trkpt>
      <trkpt lat="42.04857" lon="-1.3067">
        <ele>597</ele>
        <time>2010-11-06T22:05:23Z</time>
      </trkpt>
      <trkpt lat="42.04738" lon="-1.30803">
        <ele>604</ele>
        <time>2010-11-06T22:06:05Z</time>
      </trkpt>
      <trkpt lat="42.04591" lon="-1.30837">
        <ele>601</ele>
        <time>2010-11-06T22:06:45Z</time>
      </trkpt>
      <trkpt lat="42.04464" lon="-1.30784">
        <ele>599</ele>
        <time>2010-11-06T22:07:20Z</time>
      </trkpt>
      <trkpt lat="42.04298" lon="-1.30561">
        <ele>596</ele>
        <time>2010-11-06T22:08:22Z</time>
      </trkpt>
      <trkpt lat="42.04279" lon="-1.30562">
        <ele>599</ele>
        <time>2010-11-06T22:08:28Z</time>
      </trkpt>
      <trkpt lat="42.04078" lon="-1.30906">
        <ele>602</ele>
        <time>2010-11-06T22:09:54Z</time>
      </trkpt>
      <trkpt lat="42.03815" lon="-1.31314">
        <ele>598</ele>
        <time>2010-11-06T22:11:42Z</time>
      </trkpt>
      <trkpt lat="42.03786" lon="-1.31345">
        <ele>602</ele>
        <time>2010-11-06T22:11:52Z</time>
      </trkpt>
      <trkpt lat="42.03664" lon="-1.31412">
        <ele>606</ele>
        <time>2010-11-06T22:12:27Z</time>
      </trkpt>
      <trkpt lat="42.03627" lon="-1.31467">
        <ele>605</ele>
        <time>2010-11-06T22:12:41Z</time>
      </trkpt>
      <trkpt lat="42.03607" lon="-1.31554">
        <ele>603</ele>
        <time>2010-11-06T22:12:59Z</time>
      </trkpt>
      <trkpt lat="42.03515" lon="-1.31692">
        <ele>604</ele>
        <time>2010-11-06T22:13:37Z</time>
      </trkpt>
      <trkpt lat="42.03516" lon="-1.31787">
        <ele>605</ele>
        <time>2010-11-06T22:13:56Z</time>
      </trkpt>
      <trkpt lat="42.03479" lon="-1.31847">
        <ele>600</ele>
        <time>2010-11-06T22:14:12Z</time>
      </trkpt>
      <trkpt lat="42.03449" lon="-1.31859">
        <ele>598</ele>
        <time>2010-11-06T22:14:20Z</time>
      </trkpt>
      <trkpt lat="42.03452" lon="-1.31875">
        <ele>597</ele>
        <time>2010-11-06T22:14:23Z</time>
      </trkpt>
      <trkpt lat="42.03496" lon="-1.31909">
        <ele>600</ele>
        <time>2010-11-06T22:14:37Z</time>
      </trkpt>
      <trkpt lat="42.03563" lon="-1.31944">
        <ele>605</ele>
        <time>2010-11-06T22:14:57Z</time>
      </trkpt>
      <trkpt lat="42.03525" lon="-1.32176">
        <ele>600</ele>
        <time>2010-11-06T22:15:44Z</time>
      </trkpt>
      <trkpt lat="42.03437" lon="-1.32266">
        <ele>595</ele>
        <time>2010-11-06T22:16:13Z</time>
      </trkpt>
      <trkpt lat="42.03411" lon="-1.32344">
        <ele>598</ele>
        <time>2010-11-06T22:16:31Z</time>
      </trkpt>
      <trkpt lat="42.03457" lon="-1.32413">
        <ele>598</ele>
        <time>2010-11-06T22:16:48Z</time>
      </trkpt>
      <trkpt lat="42.03497" lon="-1.32553">
        <ele>591</ele>
        <time>2010-11-06T22:17:18Z</time>
      </trkpt>
      <trkpt lat="42.03403" lon="-1.32672">
        <ele>590</ele>
        <time>2010-11-06T22:17:53Z</time>
      </trkpt>
      <trkpt lat="42.03224" lon="-1.33066">
        <ele>578</ele>
        <time>2010-11-06T22:19:26Z</time>
      </trkpt>
      <trkpt lat="42.03185" lon="-1.33235">
        <ele>567</ele>
        <time>2010-11-06T22:20:01Z</time>
      </trkpt>
      <trkpt lat="42.03194" lon="-1.33415">
        <ele>560</ele>
        <time>2010-11-06T22:20:37Z</time>
      </trkpt>
      <trkpt lat="42.03282" lon="-1.3362">
        <ele>530</ele>
        <time>2010-11-06T22:21:25Z</time>
      </trkpt>
      <trkpt lat="42.03349" lon="-1.3373">
        <ele>511</ele>
        <time>2010-11-06T22:21:54Z</time>
      </trkpt>
      <trkpt lat="42.03417" lon="-1.33816">
        <ele>500</ele>
        <time>2010-11-06T22:22:19Z</time>
      </trkpt>
      <trkpt lat="42.03544" lon="-1.33887">
        <ele>482</ele>
        <time>2010-11-06T22:22:57Z</time>
      </trkpt>
      <trkpt lat="42.03578" lon="-1.3401">
        <ele>473</ele>
        <time>2010-11-06T22:23:23Z</time>
      </trkpt>
      <trkpt lat="42.03607" lon="-1.3406">
        <ele>470</ele>
        <time>2010-11-06T22:23:37Z</time>
      </trkpt>
      <trkpt lat="42.03644" lon="-1.34054">
        <ele>469</ele>
        <time>2010-11-06T22:23:48Z</time>
      </trkpt>
      <trkpt lat="42.03668" lon="-1.34075">
        <ele>465</ele>
        <time>2010-11-06T22:23:55Z</time>
      </trkpt>
      <trkpt lat="42.03686" lon="-1.34195">
        <ele>455</ele>
        <time>2010-11-06T22:24:19Z</time>
      </trkpt>
      <trkpt lat="42.03759" lon="-1.34273">
        <ele>442</ele>
        <time>2010-11-06T22:24:44Z</time>
      </trkpt>
      <trkpt lat="42.03803" lon="-1.34371">
        <ele>423</ele>
        <time>2010-11-06T22:25:08Z</time>
      </trkpt>
      <trkpt lat="42.03812" lon="-1.34503">
        <ele>404</ele>
        <time>2010-11-06T22:25:35Z</time>
      </trkpt>
      <trkpt lat="42.03803" lon="-1.34524">
        <ele>400</ele>
        <time>2010-11-06T22:25:40Z</time>
      </trkpt>
      <trkpt lat="42.0374" lon="-1.3453">
        <ele>404</ele>
        <time>2010-11-06T22:25:56Z</time>
      </trkpt>
      <trkpt lat="42.03686" lon="-1.34621">
        <ele>406</ele>
        <time>2010-11-06T22:26:20Z</time>
      </trkpt>
      <trkpt lat="42.03627" lon="-1.34677">
        <ele>410</ele>
        <time>2010-11-06T22:26:39Z</time>
      </trkpt>
      <trkpt lat="42.03567" lon="-1.34778">
        <ele>413</ele>
        <time>2010-11-06T22:27:04Z</time>
      </trkpt>
      <trkpt lat="42.03532" lon="-1.34797">
        <ele>414</ele>
        <time>2010-11-06T22:27:15Z</time>
      </trkpt>
      <trkpt lat="42.03491" lon="-1.3488">
        <ele>402</ele>
        <time>2010-11-06T22:27:34Z</time>
      </trkpt>
      <trkpt lat="42.03448" lon="-1.34928">
        <ele>411</ele>
        <time>2010-11-06T22:27:50Z</time>
      </trkpt>
      <trkpt lat="42.03331" lon="-1.34982">
        <ele>406</ele>
        <time>2010-11-06T22:28:22Z</time>
      </trkpt>
      <trkpt lat="42.03304" lon="-1.35117">
        <ele>397</ele>
        <time>2010-11-06T22:28:51Z</time>
      </trkpt>
      <trkpt lat="42.03134" lon="-1.3549">
        <ele>387</ele>
        <time>2010-11-06T22:30:18Z</time>
      </trkpt>
      <trkpt lat="42.03116" lon="-1.35621">
        <ele>383</ele>
        <time>2010-11-06T22:30:45Z</time>
      </trkpt>
      <trkpt lat="42.03085" lon="-1.35685">
        <ele>376</ele>
        <time>2010-11-06T22:31:01Z</time>
      </trkpt>
      <trkpt lat="42.02993" lon="-1.35744">
        <ele>378</ele>
        <time>2010-11-06T22:31:27Z</time>
      </trkpt>
      <trkpt lat="42.02849" lon="-1.35783">
        <ele>377</ele>
        <time>2010-11-06T22:32:07Z</time>
      </trkpt>
      <trkpt lat="42.02768" lon="-1.35843">
        <ele>377</ele>
        <time>2010-11-06T22:32:32Z</time>
      </trkpt>
      <trkpt lat="42.0261" lon="-1.35991">
        <ele>377</ele>
        <time>2010-11-06T22:33:23Z</time>
      </trkpt>
      <trkpt lat="42.02585" lon="-1.36147">
        <ele>368</ele>
        <time>2010-11-06T22:33:56Z</time>
      </trkpt>
      <trkpt lat="42.02446" lon="-1.36242">
        <ele>360</ele>
        <time>2010-11-06T22:34:38Z</time>
      </trkpt>
      <trkpt lat="42.02389" lon="-1.36229">
        <ele>358</ele>
        <time>2010-11-06T22:34:54Z</time>
      </trkpt>
      <trkpt lat="42.02318" lon="-1.36286">
        <ele>356</ele>
        <time>2010-11-06T22:35:16Z</time>
      </trkpt>
      <trkpt lat="42.02299" lon="-1.36282">
        <ele>356</ele>
        <time>2010-11-06T22:35:21Z</time>
      </trkpt>
      <trkpt lat="42.02245" lon="-1.36216">
        <ele>356</ele>
        <time>2010-11-06T22:35:41Z</time>
      </trkpt>
      <trkpt lat="42.02173" lon="-1.3623">
        <ele>357</ele>
        <time>2010-11-06T22:35:59Z</time>
      </trkpt>
      <trkpt lat="42.0208" lon="-1.36215">
        <ele>356</ele>
        <time>2010-11-06T22:36:25Z</time>
      </trkpt>
      <trkpt lat="42.01909" lon="-1.3624">
        <ele>351</ele>
        <time>2010-11-06T22:37:11Z</time>
      </trkpt>
      <trkpt lat="42.01503" lon="-1.36113">
        <ele>344</ele>
        <time>2010-11-06T22:39:02Z</time>
      </trkpt>
      <trkpt lat="42.01303" lon="-1.36109">
        <ele>343</ele>
        <time>2010-11-06T22:39:55Z</time>
      </trkpt>
      <trkpt lat="42.01123" lon="-1.36024">
        <ele>341</ele>
        <time>2010-11-06T22:40:46Z</time>
      </trkpt>
      <trkpt lat="42.00994" lon="-1.35904">
        <ele>336</ele>
        <time>2010-11-06T22:41:28Z</time>
      </trkpt>
      <trkpt lat="42.0093" lon="-1.35895">
        <ele>335</ele>
        <time>2010-11-06T22:41:45Z</time>
      </trkpt>
      <trkpt lat="42.00892" lon="-1.35873">
        <ele>334</ele>
        <time>2010-11-06T22:41:56Z</time>
      </trkpt>
      <trkpt lat="42.00838" lon="-1.35816">
        <ele>332</ele>
        <time>2010-11-06T22:42:15Z</time>
      </trkpt>
      <trkpt lat="42.00765" lon="-1.35772">
        <ele>333</ele>
        <time>2010-11-06T22:42:35Z</time>
      </trkpt>
      <trkpt lat="42.00715" lon="-1.35765">
        <ele>333</ele>
        <time>2010-11-06T22:42:48Z</time>
      </trkpt>
      <trkpt lat="42.00673" lon="-1.35777">
        <ele>333</ele>
        <time>2010-11-06T22:43:01Z</time>
      </trkpt>
      <trkpt lat="42.00434" lon="-1.3575">
        <ele>326</ele>
        <time>2010-11-06T22:44:05Z</time>
      </trkpt>
      <trkpt lat="42.00379" lon="-1.35756">
        <ele>331</ele>
        <time>2010-11-06T22:44:20Z</time>
      </trkpt>
      <trkpt lat="42.00157" lon="-1.35699">
        <ele>327</ele>
        <time>2010-11-06T22:45:19Z</time>
      </trkpt>
      <trkpt lat="42.00004" lon="-1.35686">
        <ele>329</ele>
        <time>2010-11-06T22:46:01Z</time>
      </trkpt>
      <trkpt lat="41.99961" lon="-1.357">
        <ele>329</ele>
        <time>2010-11-06T22:46:12Z</time>
      </trkpt>
      <trkpt lat="41.99943" lon="-1.35749">
        <ele>336</ele>
        <time>2010-11-06T22:46:23Z</time>
      </trkpt>
      <trkpt lat="41.99949" lon="-1.35896">
        <ele>347</ele>
        <time>2010-11-06T22:46:53Z</time>
      </trkpt>
      <trkpt lat="41.99975" lon="-1.35976">
        <ele>346</ele>
        <time>2010-11-06T22:47:11Z</time>
      </trkpt>
      <trkpt lat="42.00006" lon="-1.36001">
        <ele>346</ele>
        <time>2010-11-06T22:47:19Z</time>
      </trkpt>
      <trkpt lat="42.00022" lon="-1.36062">
        <ele>346</ele>
        <time>2010-11-06T22:47:33Z</time>
      </trkpt>
      <trkpt lat="41.99959" lon="-1.36223">
        <ele>354</ele>
        <time>2010-11-06T22:48:08Z</time>
      </trkpt>
      <trkpt lat="41.99913" lon="-1.36256">
        <ele>360</ele>
        <time>2010-11-06T22:48:23Z</time>
      </trkpt>
      <trkpt lat="41.99859" lon="-1.36332">
        <ele>355</ele>
        <time>2010-11-06T22:48:43Z</time>
      </trkpt>
      <trkpt lat="41.99832" lon="-1.36435">
        <ele>350</ele>
        <time>2010-11-06T22:49:05Z</time>
      </trkpt>
      <trkpt lat="41.99827" lon="-1.36548">
        <ele>354</ele>
        <time>2010-11-06T22:49:29Z</time>
      </trkpt>
      <trkpt lat="41.99807" lon="-1.36555">
        <ele>355</ele>
        <time>2010-11-06T22:49:34Z</time>
      </trkpt>
      <trkpt lat="41.99777" lon="-1.36528">
        <ele>353</ele>
        <time>2010-11-06T22:49:44Z</time>
      </trkpt>
      <trkpt lat="41.99635" lon="-1.36531">
        <ele>353</ele>
        <time>2010-11-06T22:50:22Z</time>
      </trkpt>
      <trkpt lat="41.99515" lon="-1.36498">
        <ele>352</ele>
        <time>2010-11-06T22:50:54Z</time>
      </trkpt>
      <trkpt lat="41.99386" lon="-1.36506">
        <ele>351</ele>
        <time>2010-11-06T22:51:29Z</time>
      </trkpt>
      <trkpt lat="41.9935" lon="-1.36521">
        <ele>352</ele>
        <time>2010-11-06T22:51:38Z</time>
      </trkpt>
      <trkpt lat="41.99185" lon="-1.36662">
        <ele>339</ele>
        <time>2010-11-06T22:52:31Z</time>
      </trkpt>
      <trkpt lat="41.98933" lon="-1.36663">
        <ele>334</ele>
        <time>2010-11-06T22:53:38Z</time>
      </trkpt>
      <trkpt lat="41.98654" lon="-1.3662">
        <ele>326</ele>
        <time>2010-11-06T22:54:53Z</time>
      </trkpt>
      <trkpt lat="41.98425" lon="-1.36684">
        <ele>329</ele>
        <time>2010-11-06T22:55:56Z</time>
      </trkpt>
      <trkpt lat="41.98381" lon="-1.36682">
        <ele>327</ele>
        <time>2010-11-06T22:56:07Z</time>
      </trkpt>
      <trkpt lat="41.98268" lon="-1.36724">
        <ele>324</ele>
        <time>2010-11-06T22:56:39Z</time>
      </trkpt>
      <trkpt lat="41.9821" lon="-1.36691">
        <ele>323</ele>
        <time>2010-11-06T22:56:55Z</time>
      </trkpt>
      <trkpt lat="41.97831" lon="-1.36733">
        <ele>318</ele>
        <time>2010-11-06T22:58:37Z</time>
      </trkpt>
      <trkpt lat="41.97751" lon="-1.3676">
        <ele>323</ele>
        <time>2010-11-06T22:58:59Z</time>
      </trkpt>
      <trkpt lat="41.97577" lon="-1.36891">
        <ele>320</ele>
        <time>2010-11-06T22:59:53Z</time>
      </trkpt>
      <trkpt lat="41.97563" lon="-1.36933">
        <ele>319</ele>
        <time>2010-11-06T23:00:01Z</time>
      </trkpt>
      <trkpt lat="41.97591" lon="-1.37032">
        <ele>318</ele>
        <time>2010-11-06T23:00:22Z</time>
      </trkpt>
      <trkpt lat="41.9759" lon="-1.3708">
        <ele>314</ele>
        <time>2010-11-06T23:00:32Z</time>
      </trkpt>
      <trkpt lat="41.97508" lon="-1.37143">
        <ele>310</ele>
        <time>2010-11-06T23:00:57Z</time>
      </trkpt>
      <trkpt lat="41.97466" lon="-1.3724">
        <ele>305</ele>
        <time>2010-11-06T23:01:19Z</time>
      </trkpt>
      <trkpt lat="41.97462" lon="-1.37282">
        <ele>304</ele>
        <time>2010-11-06T23:01:27Z</time>
      </trkpt>
      <trkpt lat="41.975" lon="-1.37457">
        <ele>299</ele>
        <time>2010-11-06T23:02:04Z</time>
      </trkpt>
      <trkpt lat="41.97484" lon="-1.37507">
        <ele>297</ele>
        <time>2010-11-06T23:02:15Z</time>
      </trkpt>
      <trkpt lat="41.97385" lon="-1.3753">
        <ele>300</ele>
        <time>2010-11-06T23:02:42Z</time>
      </trkpt>
      <trkpt lat="41.97262" lon="-1.37459">
        <ele>298</ele>
        <time>2010-11-06T23:03:17Z</time>
      </trkpt>
      <trkpt lat="41.97214" lon="-1.37455">
        <ele>298</ele>
        <time>2010-11-06T23:03:30Z</time>
      </trkpt>
      <trkpt lat="41.97159" lon="-1.37464">
        <ele>297</ele>
        <time>2010-11-06T23:03:46Z</time>
      </trkpt>
      <trkpt lat="41.97089" lon="-1.37504">
        <ele>293</ele>
        <time>2010-11-06T23:04:05Z</time>
      </trkpt>
      <trkpt lat="41.97043" lon="-1.37556">
        <ele>291</ele>
        <time>2010-11-06T23:04:21Z</time>
      </trkpt>
      <trkpt lat="41.96965" lon="-1.37708">
        <ele>282</ele>
        <time>2010-11-06T23:04:59Z</time>
      </trkpt>
      <trkpt lat="41.96917" lon="-1.38116">
        <ele>259</ele>
        <time>2010-11-06T23:06:22Z</time>
      </trkpt>
      <trkpt lat="41.96759" lon="-1.38145">
        <ele>254</ele>
        <time>2010-11-06T23:07:05Z</time>
      </trkpt>
      <trkpt lat="41.96725" lon="-1.38185">
        <ele>250</ele>
        <time>2010-11-06T23:07:16Z</time>
        <extensions>
          <visugpx:TrkExtension xmlns:visugpx="https://www.visugpx.com/editgpx/">
            <visugpx:node>1</visugpx:node>
            </visugpx:TrkExtension>
        </extensions>
      </trkpt>
    </trkseg>
  </trk>
</gpx>